Ana Sayfa
METAR-TAF:

METAR-TAF

Havaalanları :

Hagi, Japonya

Enlem: 34-40N, Boylam: 131-48E, yükseklik: 54 m

Güncel hava durumu gözlemi

Rapor saat 08:00 UTC de 44 dakika önce yapıldı.
Rüzgar kuzeybatıdan 15 kt
Sıcaklık 6°C
Nem 39%
Basınç 1016 hPa
Görüş mesafesi 10 km veya daha fazla
3500 ft yükseklikte az bulutlu
parçalı bulutlu

METAR: RJOW 010800Z 31015KT 9999 FEW035 SCT/// 06/M07 Q1016

Saat: 17:44 (08:44 UTC)


TAF: eksik

4.000'den fazla havaalanı için hava durumu gözlemleri ve tahminleri (METAR ve TAF raporları).

Kullanılabilir istasyonlar harita üzerinde sarı ve kırmızı noktalarla gösterilir.

İstasyonun adını görmek için fareyi noktanın üzerinde gezdirin.

Sonrasında hava gözlem ve tahminlerini görmek için tıklayın.

Haritayı değiştirmek için: yaklaştırmak için siyah artı işaretli yeşil düğmeye ve uzaklaştırmak için de eksi işaretli düğmeye hızla tıklayın; bitişik haritalar için yeşil okları kullanın.


METAR-TAF: